ENBL/FDE METAR and TAF weather

Enter ICAO airport designator
Station Type Date Time Source
ENBL METAR 2019/02/22 21:50 UTC NOAA

ENBL 222150Z 20005KT 9999 FEW002 BKN014 05/05 Q1033


Station Type Date Time Source
ENBL Decoded METAR 2019/02/22 21:50 UTC NOAA

Forde / Bringeland, Norway (ENBL) 61-27N 005-52E
Feb 22, 2019 - 04:50 PM EST / 2019.02.22 2150 UTC
Wind: from the SSW (200 degrees) at 6 MPH (5 KT):0
Visibility: greater than 7 mile(s):0
Sky conditions: mostly cloudy
Temperature: 41 F (5 C)
Dew Point: 41 F (5 C)
Relative Humidity: 100%
Pressure (altimeter): 30.50 in. Hg (1033 hPa)
ob: ENBL 222150Z 20005KT 9999 FEW002 BKN014 05/05 Q1033
cycle: 22

Station Type Date Time Source
ENBL TAF UTC NOAA

Error!


Example: see airport list